Montreal / St-Lazare Airport

CST3 · Quebec, 加拿大

使用的METAR站距离机场17 NM。
罗盘
风向 的 风向 110° Montreal / St-Lazare Airport 2/20
风: 5 kt, 2 beaufort

1 kt

5 kt
改变
0 ft 2.000 4.000 6.000 8.000 10.000
Cloud Cloud
FEW 9.000
METAR CYUL 210100Z 11005KT 15SM FEW090 M08/M12 A3050 RMK AC1 SLP333

METAR Montreal / St-Lazare Airport - CST3

Montreal / St-Lazare Airport是,加拿大中的小机场。 该机场位于纬度45,39032和经度-74,13498。 该机场有2条跑道: 2/20 和 8/26. 该机场的伪ICAO代码为CST3。 机场在Montreal FIR中。

该航空气象观测是针对蒙特利尔皮埃尔·埃利奥特·特鲁多国际机场在2024年2月20日 20:00, 当地时间进行的。

机场观察

风向为110°,速度为5 kt。

可见度为15 mi。

有几云在9.000 ft的高度。 没有观察到天花板。

温度为-8 °C,阵风为-14 °C。 露点为-12 °C,相对湿度为73%。 海平面上的气压为30,50 inHg (QNH)。

白天

今天,太阳从06:48升起,在17:31降落。 这适用于Montreal / St-Lazare Airport,世界夏令时可能有所不同。 当地时间与世界标准时间之间的时差为-5 小时。 当前,没有夏令时有效。

公司介绍

我们没有关于这个机场的公司信息。

体会

到Vliegles.nl去找飞行课程,跳伞和其他飞行体验。 浏览页面,了解Montreal / St-Lazare Airport附近所有可用的活动。 你也可以使用搜索功能来寻找你所在地附近的特定飞行课程、跳伞或其他飞行体验。

跑道

Id 标题 侧风 逆风 侧风 %
2/20 010°-190° 5 kt 98 %
8/26 065°-245° 4 kt 4 kt 71 %

逆风成分最大的方向会被突出显示,并用于横风计算。 这并不一定意味着这个方向在使用。

乌云

9.000 ft FEW 几云

温度 & 天气

温度 -8 °C
露点 -12 °C
相对湿度 73%
风寒 -14 °C
Kp-index 0 (0-9)

评论

SLP333海平面压力为30,51 inHg (30,51 inHg)
AC1

白天

日出
06:47 (9:50)
中午
12:08
日落
17:29

小工具

你想在你的网站上有一个关于Montreal / St-Lazare Airport的当前航空天气(METAR)的小部件吗?

显示HTML代码
?>